createdAt,value
2019-02-27T00:01:32.400Z,2.52
2019-02-27T00:03:59.808Z,2.95
2019-02-27T00:06:28.743Z,2.50
2019-02-27T00:08:57.885Z,2.62
2019-02-27T00:11:25.061Z,2.50
2019-02-27T00:13:52.403Z,2.77
2019-02-27T00:16:19.763Z,3.00
2019-02-27T00:18:47.106Z,2.60
2019-02-27T00:21:14.396Z,2.70
2019-02-27T00:23:41.756Z,2.70
2019-02-27T00:26:09.615Z,2.60
2019-02-27T00:28:37.193Z,2.35
2019-02-27T00:31:04.489Z,2.98
2019-02-27T00:33:31.772Z,2.85
2019-02-27T00:35:59.055Z,3.02
2019-02-27T00:38:26.325Z,2.52
2019-02-27T00:40:53.633Z,2.90
2019-02-27T00:43:20.921Z,3.12
2019-02-27T00:45:48.263Z,2.40
2019-02-27T00:48:15.648Z,2.50
2019-02-27T00:50:42.963Z,2.45
2019-02-27T00:53:10.242Z,2.87
2019-02-27T00:55:39.381Z,2.45
2019-02-27T00:58:06.565Z,2.62
2019-02-27T01:00:33.963Z,2.60
2019-02-27T01:03:01.235Z,2.42
2019-02-27T01:05:28.522Z,2.83
2019-02-27T01:07:55.887Z,2.90
2019-02-27T01:10:23.293Z,2.50
2019-02-27T01:12:51.306Z,2.40
2019-02-27T01:15:18.581Z,2.62
2019-02-27T01:17:45.858Z,2.87
2019-02-27T01:20:15.899Z,2.27
2019-02-27T01:22:43.192Z,2.45
2019-02-27T01:25:11.018Z,2.45
2019-02-27T01:27:39.415Z,2.60
2019-02-27T01:30:08.305Z,2.40
2019-02-27T01:32:35.597Z,2.58
2019-02-27T01:35:04.450Z,2.60
2019-02-27T01:37:32.341Z,2.65
2019-02-27T01:39:59.915Z,2.55
2019-02-27T01:42:32.016Z,2.47
2019-02-27T01:44:56.316Z,2.58
2019-02-27T01:47:24.163Z,2.70
2019-02-27T01:49:51.538Z,3.08
2019-02-27T01:52:18.924Z,3.02
2019-02-27T01:54:48.841Z,2.58
2019-02-27T01:57:15.264Z,2.55
2019-02-27T01:59:42.551Z,2.40
2019-02-27T02:02:09.829Z,2.58
2019-02-27T02:04:37.113Z,2.60
2019-02-27T02:07:06.585Z,2.70
2019-02-27T02:09:34.520Z,2.40
2019-02-27T02:12:07.672Z,2.22
2019-02-27T02:14:54.111Z,2.40
2019-02-27T02:17:38.170Z,2.42
2019-02-27T02:20:20.783Z,2.60
2019-02-27T02:23:05.948Z,2.35
2019-02-27T02:25:34.839Z,2.60
2019-02-27T02:28:06.516Z,2.45
2019-02-27T02:30:50.613Z,2.45
2019-02-27T02:33:19.430Z,2.58
2019-02-27T02:36:03.499Z,2.77
2019-02-27T02:38:38.292Z,2.50
2019-02-27T02:41:19.267Z,2.50
2019-02-27T02:43:53.759Z,2.50
2019-02-27T02:46:31.501Z,2.12
2019-02-27T02:49:07.988Z,2.42
2019-02-27T02:51:51.824Z,2.45
2019-02-27T02:54:26.339Z,2.85
2019-02-27T02:57:12.134Z,2.42
2019-02-27T02:59:59.968Z,2.62
2019-02-27T03:02:29.771Z,2.30
2019-02-27T03:04:58.335Z,2.67
2019-02-27T03:07:29.837Z,2.45
2019-02-27T03:10:07.442Z,2.72
2019-02-27T03:12:44.630Z,2.25
2019-02-27T03:15:28.339Z,2.47
2019-02-27T03:18:01.883Z,2.75
2019-02-27T03:20:30.721Z,3.05
2019-02-27T03:23:05.620Z,2.37
2019-02-27T03:25:46.119Z,2.37
2019-02-27T03:28:17.679Z,2.25
2019-02-27T03:30:58.588Z,2.52
2019-02-27T03:33:27.525Z,2.20
2019-02-27T03:35:59.926Z,2.50
2019-02-27T03:38:41.642Z,2.50
2019-02-27T03:41:16.250Z,2.30
2019-02-27T03:43:46.068Z,2.50
2019-02-27T03:46:15.848Z,2.55
2019-02-27T03:48:53.630Z,2.35
2019-02-27T03:51:28.559Z,2.52
2019-02-27T03:53:57.459Z,2.30
2019-02-27T03:56:28.979Z,2.52
2019-02-27T03:59:06.042Z,2.17
2019-02-27T04:01:42.981Z,2.52
2019-02-27T04:04:11.791Z,2.90
2019-02-27T04:06:43.347Z,2.27
2019-02-27T04:09:10.636Z,2.83
2019-02-27T04:11:41.391Z,2.45
2019-02-27T04:14:26.563Z,2.27
2019-02-27T04:16:53.832Z,2.45
2019-02-27T04:19:21.524Z,2.25
2019-02-27T04:21:48.917Z,2.52
2019-02-27T04:24:16.231Z,2.45
2019-02-27T04:26:43.522Z,2.05
2019-02-27T04:29:10.870Z,1.92
2019-02-27T04:31:38.285Z,2.10
2019-02-27T04:34:05.627Z,2.40
2019-02-27T04:36:32.998Z,2.30
2019-02-27T04:39:02.482Z,2.25
2019-02-27T04:41:29.281Z,2.25
2019-02-27T04:43:56.586Z,2.42
2019-02-27T04:46:23.870Z,1.98
2019-02-27T04:48:51.150Z,2.12
2019-02-27T04:51:18.429Z,2.55
2019-02-27T04:53:45.739Z,2.10
2019-02-27T04:56:13.166Z,2.33
2019-02-27T04:58:42.873Z,2.10
2019-02-27T05:01:09.432Z,2.30
2019-02-27T05:03:36.781Z,1.95
2019-02-27T05:06:04.062Z,2.15
2019-02-27T05:08:31.350Z,2.22
2019-02-27T05:10:58.663Z,2.33
2019-02-27T05:13:26.012Z,2.20
2019-02-27T05:15:53.305Z,2.27
2019-02-27T05:18:20.661Z,2.27
2019-02-27T05:20:48.017Z,2.33
2019-02-27T05:23:15.327Z,2.47
2019-02-27T05:25:42.670Z,1.92
2019-02-27T05:28:10.374Z,2.45
2019-02-27T05:30:37.649Z,2.37
2019-02-27T05:33:04.926Z,2.47
2019-02-27T05:35:32.242Z,2.10
2019-02-27T05:37:59.587Z,2.55
2019-02-27T05:40:27.352Z,2.42
2019-02-27T05:42:54.631Z,2.40
2019-02-27T05:45:21.921Z,2.40
2019-02-27T05:47:49.203Z,2.58
2019-02-27T05:50:16.482Z,2.33
2019-02-27T05:52:48.368Z,2.33
2019-02-27T05:55:12.931Z,2.27
2019-02-27T05:57:40.334Z,2.70
2019-02-27T06:00:09.252Z,2.33
2019-02-27T06:02:36.687Z,2.22
2019-02-27T06:05:04.943Z,2.27
2019-02-27T06:07:32.303Z,2.50
2019-02-27T06:09:59.627Z,2.35
2019-02-27T06:12:26.967Z,2.80
2019-02-27T06:14:55.018Z,2.95
2019-02-27T06:17:23.481Z,2.60
2019-02-27T06:19:50.894Z,2.72
2019-02-27T06:22:18.196Z,2.55
2019-02-27T06:24:46.336Z,2.95
2019-02-27T06:27:13.877Z,2.55
2019-02-27T06:29:41.153Z,2.83
2019-02-27T06:32:12.143Z,2.65
2019-02-27T06:34:38.711Z,2.87
2019-02-27T06:37:05.999Z,3.17
2019-02-27T06:39:34.435Z,2.90
2019-02-27T06:42:02.347Z,3.22
2019-02-27T06:44:29.730Z,3.27
2019-02-27T06:46:57.039Z,3.35
2019-02-27T06:49:24.482Z,4.50
2019-02-27T06:51:51.760Z,3.98
2019-02-27T06:54:19.043Z,7.45
2019-02-27T06:56:46.524Z,6.70
2019-02-27T06:59:13.792Z,9.28
2019-02-27T07:01:41.094Z,9.70
2019-02-27T07:04:08.619Z,10.72
2019-02-27T07:06:36.914Z,10.30
2019-02-27T07:09:05.281Z,9.88
2019-02-27T07:11:32.701Z,8.88
2019-02-27T07:13:59.978Z,9.20
2019-02-27T07:16:27.374Z,8.35
2019-02-27T07:18:54.645Z,8.60
2019-02-27T07:21:22.011Z,6.58
2019-02-27T07:23:49.325Z,6.97
2019-02-27T07:26:16.721Z,6.62
2019-02-27T07:28:44.283Z,6.80
2019-02-27T07:31:12.503Z,6.72
2019-02-27T07:33:40.578Z,6.75
2019-02-27T07:36:08.665Z,6.20
2019-02-27T07:38:36.033Z,7.33
2019-02-27T07:41:03.352Z,6.75
2019-02-27T07:43:30.632Z,7.42
2019-02-27T07:45:57.990Z,7.20
2019-02-27T07:48:25.259Z,6.65
2019-02-27T07:50:52.552Z,6.87
2019-02-27T07:53:19.847Z,6.75
2019-02-27T07:55:47.487Z,7.05
2019-02-27T07:58:15.179Z,7.47
2019-02-27T08:00:42.884Z,7.10
2019-02-27T08:03:13.019Z,7.65
2019-02-27T08:05:39.530Z,7.10
2019-02-27T08:08:06.819Z,7.03
2019-02-27T08:10:36.757Z,6.75
2019-02-27T08:13:03.191Z,7.10
2019-02-27T08:15:30.543Z,7.70
2019-02-27T08:17:58.700Z,7.30
2019-02-27T08:20:26.417Z,7.30
2019-02-27T08:22:53.696Z,7.83
2019-02-27T08:25:21.019Z,6.55
2019-02-27T08:27:48.385Z,7.53
2019-02-27T08:30:17.257Z,6.87
2019-02-27T08:32:44.640Z,6.50
2019-02-27T08:35:12.003Z,6.40
2019-02-27T08:37:39.274Z,6.72
2019-02-27T08:40:08.055Z,6.33
2019-02-27T08:42:37.381Z,6.70
2019-02-27T08:45:05.502Z,6.25
2019-02-27T08:47:33.643Z,6.28
2019-02-27T08:50:01.146Z,7.00
2019-02-27T08:52:28.448Z,6.47
2019-02-27T08:54:55.741Z,6.47
2019-02-27T08:57:23.089Z,6.10
2019-02-27T08:59:50.424Z,5.83
2019-02-27T09:02:17.724Z,5.85
2019-02-27T09:04:45.437Z,5.87
2019-02-27T09:07:13.707Z,6.17
2019-02-27T09:09:40.998Z,5.90
2019-02-27T09:12:13.114Z,5.58
2019-02-27T09:14:37.269Z,6.00
2019-02-27T09:17:04.839Z,6.40
2019-02-27T09:19:32.134Z,6.28
2019-02-27T09:21:59.963Z,6.42
2019-02-27T09:24:28.433Z,6.28
2019-02-27T09:26:55.737Z,5.67
2019-02-27T09:29:23.016Z,5.50
2019-02-27T09:31:50.986Z,5.58
2019-02-27T09:34:18.808Z,5.65
2019-02-27T09:36:46.250Z,5.95
2019-02-27T09:39:13.521Z,6.08
2019-02-27T09:41:46.032Z,6.10
2019-02-27T09:44:09.831Z,5.60
2019-02-27T09:46:37.109Z,5.35
2019-02-27T09:49:06.792Z,5.10
2019-02-27T09:51:33.524Z,5.90
2019-02-27T09:54:00.883Z,5.22
2019-02-27T09:56:29.259Z,5.90
2019-02-27T09:58:57.509Z,5.40
2019-02-27T10:01:24.850Z,5.97
2019-02-27T10:03:54.801Z,5.75
2019-02-27T10:06:21.208Z,6.37
2019-02-27T10:08:48.569Z,5.50
2019-02-27T10:11:18.853Z,5.70
2019-02-27T10:13:44.880Z,5.45
2019-02-27T10:16:12.214Z,5.33
2019-02-27T10:18:39.483Z,5.70
2019-02-27T10:21:09.375Z,5.37
2019-02-27T10:23:35.913Z,5.67
2019-02-27T10:26:03.256Z,6.08
2019-02-27T10:28:30.541Z,5.83
2019-02-27T10:30:57.915Z,6.05
2019-02-27T10:33:25.864Z,6.28
2019-02-27T10:35:53.458Z,6.42
2019-02-27T10:38:20.798Z,5.87
2019-02-27T10:40:48.147Z,6.37
2019-02-27T10:43:15.757Z,6.37
2019-02-27T10:45:43.129Z,6.55
2019-02-27T10:48:12.621Z,6.40
2019-02-27T10:50:39.459Z,5.72
2019-02-27T10:53:06.741Z,6.30
2019-02-27T10:55:34.023Z,5.95
2019-02-27T10:58:01.326Z,6.45
2019-02-27T11:00:32.855Z,6.25
2019-02-27T11:03:01.672Z,6.25
2019-02-27T11:05:30.558Z,6.35
2019-02-27T11:07:57.855Z,6.25
2019-02-27T11:10:25.438Z,5.87
2019-02-27T11:12:52.975Z,6.28
2019-02-27T11:15:21.810Z,6.15
2019-02-27T11:17:49.143Z,6.15
2019-02-27T11:20:20.450Z,5.58
2019-02-27T11:22:45.824Z,6.28
2019-02-27T11:25:16.867Z,6.05
2019-02-27T11:27:44.173Z,5.95
2019-02-27T11:30:12.990Z,5.97
2019-02-27T11:32:40.282Z,5.47
2019-02-27T11:35:07.743Z,5.47
2019-02-27T11:37:35.023Z,5.60
2019-02-27T11:40:02.368Z,5.75
2019-02-27T11:42:32.016Z,6.08
2019-02-27T11:44:58.853Z,5.90
2019-02-27T11:47:26.134Z,5.80
2019-02-27T11:49:53.415Z,5.65
2019-02-27T11:52:20.726Z,5.22
2019-02-27T11:54:48.008Z,5.72
2019-02-27T11:57:15.419Z,6.00
2019-02-27T11:59:46.718Z,6.67
2019-02-27T12:02:11.868Z,6.10
2019-02-27T12:04:39.227Z,5.65
2019-02-27T12:07:06.546Z,5.60
2019-02-27T12:09:35.132Z,6.00
2019-02-27T12:12:03.217Z,5.75
2019-02-27T12:14:30.500Z,5.95
2019-02-27T12:16:57.854Z,5.97
2019-02-27T12:19:25.141Z,6.12
2019-02-27T12:21:52.429Z,6.30
2019-02-27T12:24:19.708Z,6.00
2019-02-27T12:26:46.982Z,5.17
2019-02-27T12:29:14.276Z,5.67
2019-02-27T12:31:41.630Z,5.25
2019-02-27T12:34:08.954Z,5.58
2019-02-27T12:36:36.237Z,5.17
2019-02-27T12:39:05.203Z,5.58
2019-02-27T12:41:33.178Z,4.92
2019-02-27T12:44:00.665Z,5.00
2019-02-27T12:46:28.008Z,4.53
2019-02-27T12:48:55.297Z,3.87
2019-02-27T12:51:22.639Z,4.62
2019-02-27T12:53:54.328Z,5.00
2019-02-27T12:56:19.002Z,4.58
2019-02-27T12:58:46.307Z,4.42
2019-02-27T13:01:16.200Z,4.20
2019-02-27T13:03:43.083Z,4.65
2019-02-27T13:06:10.694Z,4.25
2019-02-27T13:08:38.030Z,4.30
2019-02-27T13:11:07.936Z,4.28
2019-02-27T13:13:34.642Z,4.78
2019-02-27T13:16:02.071Z,3.50
2019-02-27T13:18:32.051Z,4.37
2019-02-27T13:20:58.358Z,4.40
2019-02-27T13:23:25.657Z,5.92
2019-02-27T13:25:52.947Z,5.97
2019-02-27T13:28:20.291Z,6.12
2019-02-27T13:30:47.586Z,5.80
2019-02-27T13:33:14.943Z,6.25
2019-02-27T13:35:42.221Z,6.92
2019-02-27T13:38:09.538Z,6.33
2019-02-27T13:40:36.835Z,6.75
2019-02-27T13:43:04.105Z,7.28
2019-02-27T13:45:31.897Z,5.92
2019-02-27T13:48:02.043Z,6.60
2019-02-27T13:50:28.244Z,6.90
2019-02-27T13:52:55.540Z,6.40
2019-02-27T13:55:23.256Z,6.05
2019-02-27T13:57:50.616Z,6.28
2019-02-27T14:00:22.126Z,6.17
2019-02-27T14:02:49.419Z,6.28
2019-02-27T14:05:16.764Z,6.85
2019-02-27T14:07:44.144Z,6.12
2019-02-27T14:10:16.908Z,5.78
2019-02-27T14:12:42.252Z,5.45
2019-02-27T14:15:11.202Z,5.55
2019-02-27T14:17:41.326Z,5.40
2019-02-27T14:20:11.618Z,5.53
2019-02-27T14:22:40.707Z,5.05
2019-02-27T14:25:12.382Z,5.85
2019-02-27T14:27:39.676Z,5.67
2019-02-27T14:30:08.610Z,5.20
2019-02-27T14:32:35.889Z,5.17
2019-02-27T14:35:04.045Z,4.95
2019-02-27T14:37:31.346Z,4.90
2019-02-27T14:40:03.775Z,5.05
2019-02-27T14:42:27.615Z,4.87
2019-02-27T14:44:54.905Z,5.35
2019-02-27T14:47:22.239Z,4.90
2019-02-27T14:49:49.537Z,5.37
2019-02-27T14:52:16.910Z,5.50
2019-02-27T14:54:44.321Z,5.58
2019-02-27T14:57:12.914Z,5.58
2019-02-27T14:59:40.673Z,5.53
2019-02-27T15:02:08.036Z,5.65
2019-02-27T15:04:35.368Z,5.50
2019-02-27T15:07:02.647Z,5.35
2019-02-27T15:09:29.932Z,4.97
2019-02-27T15:11:57.423Z,5.53
2019-02-27T15:14:26.256Z,5.83
2019-02-27T15:16:53.950Z,5.70
2019-02-27T15:19:21.217Z,5.53
2019-02-27T15:21:48.506Z,5.25
2019-02-27T15:24:15.854Z,5.12
2019-02-27T15:26:45.429Z,5.25
2019-02-27T15:29:12.180Z,5.83
2019-02-27T15:31:39.527Z,5.62
2019-02-27T15:34:06.837Z,6.20
2019-02-27T15:36:34.148Z,6.28
2019-02-27T15:39:01.494Z,5.95
2019-02-27T15:41:28.891Z,6.42
2019-02-27T15:44:00.254Z,5.95
2019-02-27T15:46:25.586Z,5.58
2019-02-27T15:48:52.923Z,6.40
2019-02-27T15:51:20.229Z,5.60
2019-02-27T15:53:50.005Z,6.08
2019-02-27T15:56:16.794Z,5.97
2019-02-27T15:58:44.146Z,6.40
2019-02-27T16:01:11.457Z,6.45
2019-02-27T16:03:38.740Z,6.47
2019-02-27T16:06:06.729Z,6.42
2019-02-27T16:08:34.148Z,6.40
2019-02-27T16:11:01.597Z,6.30
2019-02-27T16:13:28.961Z,7.25
2019-02-27T16:15:56.291Z,7.42
2019-02-27T16:18:23.661Z,6.72
2019-02-27T16:20:51.608Z,6.42
2019-02-27T16:23:18.893Z,6.85
2019-02-27T16:25:46.231Z,6.83
2019-02-27T16:28:16.410Z,6.87
2019-02-27T16:30:42.560Z,6.87
2019-02-27T16:33:09.841Z,6.97
2019-02-27T16:35:41.404Z,7.42
2019-02-27T16:38:06.153Z,7.55
2019-02-27T16:40:33.596Z,7.75
2019-02-27T16:43:01.025Z,7.30
2019-02-27T16:45:33.514Z,6.75
2019-02-27T16:47:59.251Z,6.87
2019-02-27T16:50:28.137Z,7.65
2019-02-27T16:52:55.840Z,8.13
2019-02-27T16:55:24.243Z,7.92
2019-02-27T16:57:56.597Z,7.33
2019-02-27T17:00:24.994Z,8.10
2019-02-27T17:02:52.279Z,6.97
2019-02-27T17:05:19.657Z,7.35
2019-02-27T17:07:47.175Z,8.50
2019-02-27T17:10:18.833Z,8.28
2019-02-27T17:12:46.286Z,7.67
2019-02-27T17:15:13.746Z,7.17
2019-02-27T17:17:41.040Z,7.37
2019-02-27T17:20:17.900Z,7.53
2019-02-27T17:22:52.782Z,7.62
2019-02-27T17:25:20.146Z,7.37
2019-02-27T17:27:50.271Z,7.80
2019-02-27T17:30:37.723Z,7.47
2019-02-27T17:33:05.261Z,7.05
2019-02-27T17:35:33.001Z,7.70
2019-02-27T17:38:00.288Z,8.18
2019-02-27T17:40:29.274Z,7.05
2019-02-27T17:42:57.654Z,7.83
2019-02-27T17:45:25.587Z,7.12
2019-02-27T17:47:52.863Z,7.25
2019-02-27T17:50:20.156Z,7.58
2019-02-27T17:52:49.091Z,7.72
2019-02-27T17:55:19.422Z,7.30
2019-02-27T17:57:46.710Z,7.25
2019-02-27T18:00:44.167Z,7.25
2019-02-27T18:03:11.514Z,6.92
2019-02-27T18:05:38.947Z,6.95
2019-02-27T18:08:06.292Z,6.47
2019-02-27T18:10:37.136Z,7.33
2019-02-27T18:13:02.683Z,6.87
2019-02-27T18:15:30.033Z,7.17
2019-02-27T18:17:57.641Z,7.45
2019-02-27T18:20:25.806Z,6.75
2019-02-27T18:22:53.503Z,6.90
2019-02-27T18:25:20.917Z,6.95
2019-02-27T18:27:48.380Z,6.83
2019-02-27T18:30:23.101Z,7.87
2019-02-27T18:32:50.525Z,9.23
2019-02-27T18:35:18.700Z,8.05
2019-02-27T18:37:46.125Z,8.85
2019-02-27T18:40:17.660Z,9.00
2019-02-27T18:42:44.933Z,7.90
2019-02-27T18:45:15.365Z,9.40
2019-02-27T18:47:42.866Z,9.28
2019-02-27T18:50:11.418Z,9.13
2019-02-27T18:52:39.046Z,8.78
2019-02-27T18:55:08.038Z,8.65
2019-02-27T18:57:35.337Z,8.70
2019-02-27T19:00:02.724Z,8.78
2019-02-27T19:02:30.198Z,8.23
2019-02-27T19:04:57.625Z,8.53
2019-02-27T19:07:24.934Z,9.13
2019-02-27T19:09:52.217Z,8.35
2019-02-27T19:12:25.060Z,9.30
2019-02-27T19:14:48.593Z,8.45
2019-02-27T19:17:15.913Z,8.88
2019-02-27T19:19:48.228Z,7.87
2019-02-27T19:22:12.249Z,8.10
2019-02-27T19:24:39.646Z,8.65
2019-02-27T19:27:07.302Z,8.68
2019-02-27T19:29:34.593Z,8.05
2019-02-27T19:32:01.894Z,7.85
2019-02-27T19:34:29.254Z,8.53
2019-02-27T19:36:56.603Z,9.23
2019-02-27T19:39:24.386Z,8.90
2019-02-27T19:41:51.675Z,8.70
2019-02-27T19:44:18.983Z,8.08
2019-02-27T19:46:52.682Z,8.50
2019-02-27T19:49:19.996Z,8.63
2019-02-27T19:51:47.327Z,7.90
2019-02-27T19:54:14.913Z,8.70
2019-02-27T19:56:43.622Z,8.45
2019-02-27T19:59:10.969Z,8.88
2019-02-27T20:01:40.468Z,8.43
2019-02-27T20:04:09.653Z,9.63
2019-02-27T20:06:36.323Z,9.63
2019-02-27T20:09:05.172Z,9.18
2019-02-27T20:11:32.443Z,9.10
2019-02-27T20:14:02.634Z,9.50
2019-02-27T20:16:28.844Z,10.53
2019-02-27T20:18:56.203Z,11.15
2019-02-27T20:21:23.660Z,10.93
2019-02-27T20:23:50.983Z,10.90
2019-02-27T20:26:20.998Z,11.20
2019-02-27T20:28:47.292Z,14.60
2019-02-27T20:31:17.999Z,14.78
2019-02-27T20:33:43.697Z,14.43
2019-02-27T20:36:10.978Z,14.45
2019-02-27T20:38:38.364Z,14.18
2019-02-27T20:41:06.748Z,13.20
2019-02-27T20:43:34.230Z,13.65
2019-02-27T20:46:01.522Z,12.33
2019-02-27T20:48:28.821Z,13.35
2019-02-27T20:50:57.825Z,12.30
2019-02-27T20:53:25.326Z,11.28
2019-02-27T20:55:52.658Z,10.93
2019-02-27T20:58:22.104Z,11.83
2019-02-27T21:00:49.089Z,11.60
2019-02-27T21:03:17.261Z,11.25
2019-02-27T21:05:44.546Z,11.08
2019-02-27T21:08:11.860Z,10.75
2019-02-27T21:10:39.343Z,10.88
2019-02-27T21:13:06.716Z,10.72
2019-02-27T21:15:34.460Z,10.28
2019-02-27T21:18:02.338Z,10.78
2019-02-27T21:20:29.701Z,10.78
2019-02-27T21:22:59.922Z,9.83
2019-02-27T21:25:26.076Z,10.23
2019-02-27T21:27:53.450Z,10.08
2019-02-27T21:30:21.863Z,10.25
2019-02-27T21:32:49.362Z,9.65
2019-02-27T21:35:16.715Z,9.68
2019-02-27T21:37:45.480Z,9.78
2019-02-27T21:40:16.528Z,10.03
2019-02-27T21:42:43.856Z,9.88
2019-02-27T21:45:12.384Z,9.68
2019-02-27T21:47:39.710Z,9.98
2019-02-27T21:50:08.748Z,9.73
2019-02-27T21:52:36.031Z,9.15
2019-02-27T21:55:03.320Z,9.55
2019-02-27T21:57:30.682Z,9.08
2019-02-27T21:59:57.969Z,9.43
2019-02-27T22:02:27.235Z,8.73
2019-02-27T22:04:54.495Z,9.08
2019-02-27T22:07:21.796Z,8.75
2019-02-27T22:09:49.134Z,8.58
2019-02-27T22:12:16.455Z,9.35
2019-02-27T22:14:43.974Z,10.05
2019-02-27T22:17:11.248Z,8.75
2019-02-27T22:19:38.534Z,9.50
2019-02-27T22:22:08.037Z,8.85
2019-02-27T22:24:34.911Z,8.65
2019-02-27T22:27:02.242Z,8.45
2019-02-27T22:29:29.599Z,8.73
2019-02-27T22:31:56.885Z,8.93
2019-02-27T22:34:24.205Z,8.63
2019-02-27T22:36:51.554Z,8.75
2019-02-27T22:39:18.853Z,8.15
2019-02-27T22:41:46.161Z,9.13
2019-02-27T22:44:13.938Z,8.43
2019-02-27T22:46:41.648Z,8.60
2019-02-27T22:49:08.928Z,8.55
2019-02-27T22:51:36.206Z,8.60
2019-02-27T22:54:03.492Z,8.73
2019-02-27T22:56:30.766Z,8.38
2019-02-27T22:58:59.458Z,8.13
2019-02-27T23:01:27.915Z,8.45
2019-02-27T23:03:57.993Z,8.33
2019-02-27T23:06:25.545Z,8.20
2019-02-27T23:08:54.463Z,7.97
2019-02-27T23:11:21.901Z,8.43
2019-02-27T23:13:49.498Z,8.03
2019-02-27T23:16:16.773Z,8.35
2019-02-27T23:18:44.130Z,8.48
2019-02-27T23:21:11.452Z,8.28
2019-02-27T23:23:38.731Z,8.08
2019-02-27T23:26:06.180Z,7.92
2019-02-27T23:28:34.862Z,8.03
2019-02-27T23:31:02.563Z,8.48
2019-02-27T23:33:29.867Z,8.53
2019-02-27T23:35:57.234Z,8.20
2019-02-27T23:38:24.517Z,8.20
2019-02-27T23:40:51.931Z,8.25
2019-02-27T23:43:19.808Z,8.08
2019-02-27T23:45:47.217Z,7.53
2019-02-27T23:48:14.578Z,7.72
2019-02-27T23:50:42.631Z,8.00
2019-02-27T23:53:10.836Z,8.45
2019-02-27T23:55:41.173Z,7.90
2019-02-27T23:58:07.131Z,8.63
